AFL1321 ULMM-UUEE
Flight info
| Callsign | AFL1321 |
|---|---|
| Flight time | 1h 52m |
| Altitude | 37000 |
| Route | ASGOR2P ASGOR T693 PILAN P65 UREPI/K0837F380 P65 ROMTA ROMTA3F |
| Aircraft | A320/M-SDE3FGHIRWY/LB1 |
Departure
| Time | 2026-04-24 13:10 |
|---|---|
| Airport | Emperor Nicholas II Murmansk Airport (ULMM) |
Arrival
| Time | 2026-04-24 15:03 |
|---|---|
| Airport | Sheremetyevo International Airport (UUEE) |
| Time | Latitude | Longitude | Altitude | Speed | Heading |
|---|---|---|---|---|---|
| 2026-04-24 12:36 | 68.78403 | 32.75672 | 254 ft | 0 kts | 324° |
| 2026-04-24 13:01 | 68.78405 | 32.75667 | 254 ft | 1 kts | 324° |
| 2026-04-24 13:01 | 68.78414 | 32.75649 | 254 ft | 2 kts | 324° |
| 2026-04-24 13:02 | 68.78428 | 32.75611 | 254 ft | 4 kts | 307° |
| 2026-04-24 13:02 | 68.78428 | 32.75542 | 254 ft | 4 kts | 250° |
| 2026-04-24 13:02 | 68.78411 | 32.75453 | 254 ft | 7 kts | 238° |
| 2026-04-24 13:02 | 68.78374 | 32.75296 | 254 ft | 12 kts | 237° |
| 2026-04-24 13:03 | 68.78320 | 32.75065 | 254 ft | 16 kts | 235° |
| 2026-04-24 13:03 | 68.78258 | 32.74987 | 255 ft | 11 kts | 165° |
| 2026-04-24 13:03 | 68.78184 | 32.75127 | 254 ft | 15 kts | 149° |
| 2026-04-24 13:03 | 68.78077 | 32.75301 | 252 ft | 20 kts | 148° |
| 2026-04-24 13:04 | 68.77961 | 32.75527 | 254 ft | 21 kts | 144° |
| 2026-04-24 13:04 | 68.77829 | 32.75779 | 253 ft | 25 kts | 146° |
| 2026-04-24 13:04 | 68.77683 | 32.76050 | 252 ft | 23 kts | 146° |
| 2026-04-24 13:04 | 68.77564 | 32.76270 | 253 ft | 18 kts | 146° |
| 2026-04-24 13:05 | 68.77477 | 32.76430 | 253 ft | 13 kts | 146° |
| 2026-04-24 13:05 | 68.77410 | 32.76567 | 252 ft | 14 kts | 144° |
| 2026-04-24 13:05 | 68.77323 | 32.76744 | 252 ft | 15 kts | 141° |
| 2026-04-24 13:05 | 68.77296 | 32.76786 | 252 ft | 1 kts | 275° |
| 2026-04-24 13:06 | 68.77301 | 32.76763 | 252 ft | 1 kts | 303° |
| 2026-04-24 13:06 | 68.77305 | 32.76753 | 252 ft | 0 kts | 312° |
| 2026-04-24 13:06 | 68.77314 | 32.76729 | 253 ft | 0 kts | 322° |
| 2026-04-24 13:10 | 68.77394 | 32.76567 | 252 ft | 47 kts | 326° |
| 2026-04-24 13:10 | 68.77862 | 32.75708 | 255 ft | 111 kts | 326° |
| 2026-04-24 13:10 | 68.78636 | 32.74276 | 478 ft | 142 kts | 324° |
| 2026-04-24 13:10 | 68.79455 | 32.72736 | 1246 ft | 143 kts | 319° |
| 2026-04-24 13:11 | 68.80078 | 32.70452 | 1672 ft | 163 kts | 292° |
| 2026-04-24 13:11 | 68.80211 | 32.67147 | 1947 ft | 190 kts | 263° |
| 2026-04-24 13:11 | 68.79479 | 32.63735 | 2278 ft | 230 kts | 225° |
| 2026-04-24 13:11 | 68.77906 | 32.61923 | 2661 ft | 269 kts | 188° |
| 2026-04-24 13:12 | 68.76047 | 32.63028 | 3260 ft | 284 kts | 149° |
| 2026-04-24 13:12 | 68.74667 | 32.66853 | 3956 ft | 285 kts | 112° |
| 2026-04-24 13:12 | 68.74011 | 32.71935 | 4795 ft | 281 kts | 95° |
| 2026-04-24 13:12 | 68.73595 | 32.77205 | 5669 ft | 287 kts | 105° |
| 2026-04-24 13:13 | 68.72415 | 32.81732 | 6422 ft | 300 kts | 139° |
| 2026-04-24 13:13 | 68.70486 | 32.84074 | 7139 ft | 311 kts | 172° |
| 2026-04-24 13:13 | 68.68341 | 32.83637 | 7919 ft | 311 kts | 197° |
| 2026-04-24 13:13 | 68.66249 | 32.82108 | 8677 ft | 313 kts | 197° |
| 2026-04-24 13:14 | 68.64124 | 32.80538 | 9393 ft | 318 kts | 198° |
| 2026-04-24 13:14 | 68.61915 | 32.78861 | 9756 ft | 342 kts | 198° |
| 2026-04-24 13:14 | 68.59557 | 32.77248 | 10088 ft | 355 kts | 192° |
| 2026-04-24 13:14 | 68.57053 | 32.76433 | 10757 ft | 365 kts | 185° |
| 2026-04-24 13:15 | 68.54508 | 32.76160 | 11569 ft | 366 kts | 181° |
| 2026-04-24 13:15 | 68.51997 | 32.76129 | 12377 ft | 365 kts | 180° |
| 2026-04-24 13:15 | 68.49422 | 32.76135 | 13143 ft | 366 kts | 180° |
| 2026-04-24 13:15 | 68.46899 | 32.76075 | 13806 ft | 369 kts | 181° |
| 2026-04-24 13:16 | 68.44323 | 32.75921 | 14460 ft | 372 kts | 182° |
| 2026-04-24 13:16 | 68.41727 | 32.75689 | 15099 ft | 375 kts | 182° |
| 2026-04-24 13:16 | 68.39112 | 32.75564 | 15719 ft | 377 kts | 180° |
| 2026-04-24 13:16 | 68.36476 | 32.75567 | 16314 ft | 381 kts | 180° |
| 2026-04-24 13:17 | 68.33816 | 32.75645 | 16902 ft | 384 kts | 179° |
| 2026-04-24 13:17 | 68.31137 | 32.75747 | 17471 ft | 387 kts | 179° |
| 2026-04-24 13:17 | 68.28438 | 32.75843 | 18051 ft | 389 kts | 179° |
| 2026-04-24 13:17 | 68.25718 | 32.75920 | 18578 ft | 393 kts | 179° |
| 2026-04-24 13:18 | 68.22976 | 32.75972 | 19096 ft | 396 kts | 180° |
| 2026-04-24 13:18 | 68.20209 | 32.76011 | 19601 ft | 399 kts | 180° |
| 2026-04-24 13:18 | 68.17417 | 32.76051 | 20090 ft | 402 kts | 180° |
| 2026-04-24 13:18 | 68.14606 | 32.76088 | 20579 ft | 406 kts | 180° |
| 2026-04-24 13:19 | 68.11773 | 32.76126 | 21044 ft | 408 kts | 180° |
| 2026-04-24 13:19 | 68.08921 | 32.76167 | 21491 ft | 412 kts | 180° |
| 2026-04-24 13:19 | 68.06049 | 32.76213 | 21933 ft | 415 kts | 180° |
| 2026-04-24 13:19 | 68.03155 | 32.76261 | 22361 ft | 417 kts | 180° |
| 2026-04-24 13:20 | 68.00237 | 32.76306 | 22776 ft | 420 kts | 180° |
| 2026-04-24 13:20 | 67.97300 | 32.76350 | 23146 ft | 425 kts | 180° |
| 2026-04-24 13:20 | 67.94321 | 32.76433 | 23450 ft | 431 kts | 180° |
| 2026-04-24 13:20 | 67.91308 | 32.76545 | 23788 ft | 435 kts | 180° |
| 2026-04-24 13:21 | 67.88273 | 32.76673 | 24160 ft | 438 kts | 180° |
| 2026-04-24 13:21 | 67.85211 | 32.76807 | 24525 ft | 442 kts | 180° |
| 2026-04-24 13:21 | 67.82130 | 32.76944 | 24891 ft | 444 kts | 180° |
| 2026-04-24 13:21 | 67.79030 | 32.77082 | 25250 ft | 447 kts | 180° |
| 2026-04-24 13:22 | 67.75912 | 32.77217 | 25609 ft | 449 kts | 180° |
| 2026-04-24 13:22 | 67.72775 | 32.77344 | 25951 ft | 452 kts | 180° |
| 2026-04-24 13:22 | 67.69619 | 32.77461 | 26276 ft | 455 kts | 181° |
| 2026-04-24 13:22 | 67.66486 | 32.77568 | 26596 ft | 458 kts | 181° |
| 2026-04-24 13:23 | 67.63292 | 32.77679 | 26921 ft | 460 kts | 181° |
| 2026-04-24 13:23 | 67.60080 | 32.77793 | 27248 ft | 463 kts | 181° |
| 2026-04-24 13:23 | 67.56850 | 32.77917 | 27559 ft | 465 kts | 181° |
| 2026-04-24 13:23 | 67.53605 | 32.78043 | 27866 ft | 468 kts | 181° |
| 2026-04-24 13:24 | 67.50339 | 32.78175 | 28169 ft | 470 kts | 181° |
| 2026-04-24 13:24 | 67.47059 | 32.78426 | 28435 ft | 474 kts | 176° |
| 2026-04-24 13:24 | 67.43785 | 32.79733 | 28707 ft | 479 kts | 167° |
| 2026-04-24 13:24 | 67.40563 | 32.82069 | 28990 ft | 482 kts | 164° |
| 2026-04-24 13:25 | 67.37340 | 32.84511 | 29259 ft | 484 kts | 165° |
| 2026-04-24 13:25 | 67.34099 | 32.86966 | 29525 ft | 486 kts | 165° |
| 2026-04-24 13:25 | 67.30845 | 32.89427 | 29786 ft | 488 kts | 165° |
| 2026-04-24 13:25 | 67.27576 | 32.91890 | 30039 ft | 491 kts | 165° |
| 2026-04-24 13:26 | 67.24291 | 32.94351 | 30273 ft | 493 kts | 165° |
| 2026-04-24 13:26 | 67.20991 | 32.96814 | 30508 ft | 495 kts | 165° |
| 2026-04-24 13:26 | 67.17678 | 32.99277 | 30767 ft | 496 kts | 165° |
| 2026-04-24 13:26 | 67.14362 | 33.01726 | 31123 ft | 496 kts | 165° |
| 2026-04-24 13:27 | 67.11047 | 33.04166 | 31454 ft | 495 kts | 165° |
| 2026-04-24 13:27 | 67.07736 | 33.06599 | 31762 ft | 495 kts | 165° |
| 2026-04-24 13:27 | 67.04421 | 33.09029 | 32072 ft | 495 kts | 165° |
| 2026-04-24 13:27 | 67.01107 | 33.11451 | 32402 ft | 495 kts | 165° |
| 2026-04-24 13:28 | 66.97796 | 33.13861 | 32711 ft | 495 kts | 165° |
| 2026-04-24 13:28 | 66.94486 | 33.16273 | 33019 ft | 495 kts | 165° |
| 2026-04-24 13:28 | 66.91177 | 33.18686 | 33334 ft | 494 kts | 165° |
| 2026-04-24 13:28 | 66.87872 | 33.21094 | 33623 ft | 494 kts | 165° |
| 2026-04-24 13:29 | 66.84613 | 33.23455 | 33908 ft | 493 kts | 165° |
| 2026-04-24 13:29 | 66.81310 | 33.25834 | 34162 ft | 493 kts | 165° |
| 2026-04-24 13:29 | 66.78005 | 33.28200 | 34409 ft | 493 kts | 165° |
| 2026-04-24 13:29 | 66.74706 | 33.30551 | 34657 ft | 493 kts | 165° |
| 2026-04-24 13:30 | 66.71408 | 33.32898 | 34888 ft | 492 kts | 165° |
| 2026-04-24 13:30 | 66.68110 | 33.35242 | 35115 ft | 492 kts | 165° |
| 2026-04-24 13:30 | 66.64818 | 33.37584 | 35333 ft | 491 kts | 165° |
| 2026-04-24 13:30 | 66.61529 | 33.39918 | 35536 ft | 491 kts | 165° |
| 2026-04-24 13:31 | 66.58237 | 33.42251 | 35736 ft | 491 kts | 165° |
| 2026-04-24 13:31 | 66.54950 | 33.44574 | 35940 ft | 490 kts | 165° |
| 2026-04-24 13:31 | 66.51667 | 33.46883 | 36120 ft | 490 kts | 165° |
| 2026-04-24 13:31 | 66.48384 | 33.49182 | 36277 ft | 490 kts | 165° |
| 2026-04-24 13:32 | 66.45101 | 33.51465 | 36441 ft | 489 kts | 165° |
| 2026-04-24 13:32 | 66.41819 | 33.53739 | 36545 ft | 489 kts | 165° |
| 2026-04-24 13:32 | 66.35314 | 33.58242 | 36580 ft | 481 kts | 165° |
| 2026-04-24 13:33 | 66.28891 | 33.62677 | 36580 ft | 478 kts | 165° |
| 2026-04-24 13:33 | 66.22476 | 33.67049 | 36580 ft | 478 kts | 165° |
| 2026-04-24 13:34 | 66.16062 | 33.71393 | 36582 ft | 478 kts | 165° |
| 2026-04-24 13:34 | 66.09650 | 33.75727 | 36582 ft | 478 kts | 165° |
| 2026-04-24 13:35 | 66.03240 | 33.80035 | 36583 ft | 478 kts | 165° |
| 2026-04-24 13:35 | 65.96817 | 33.84333 | 36587 ft | 478 kts | 166° |
| 2026-04-24 13:36 | 65.90398 | 33.88593 | 36586 ft | 478 kts | 166° |
| 2026-04-24 13:36 | 65.83974 | 33.92820 | 36590 ft | 478 kts | 166° |
| 2026-04-24 13:37 | 65.77545 | 33.97040 | 36595 ft | 478 kts | 166° |
| 2026-04-24 13:37 | 65.71112 | 34.01227 | 36597 ft | 479 kts | 166° |
| 2026-04-24 13:38 | 65.64679 | 34.05402 | 36606 ft | 478 kts | 166° |
| 2026-04-24 13:38 | 65.58291 | 34.09524 | 36612 ft | 478 kts | 166° |
| 2026-04-24 13:39 | 65.51859 | 34.13658 | 36617 ft | 478 kts | 166° |
| 2026-04-24 13:39 | 65.45425 | 34.17768 | 36619 ft | 478 kts | 166° |
| 2026-04-24 13:40 | 65.38993 | 34.21881 | 36551 ft | 477 kts | 166° |
| 2026-04-24 13:40 | 65.32570 | 34.25952 | 36546 ft | 478 kts | 166° |
| 2026-04-24 13:41 | 65.26143 | 34.30013 | 36548 ft | 478 kts | 166° |
| 2026-04-24 13:41 | 65.19710 | 34.34069 | 36552 ft | 478 kts | 166° |
| 2026-04-24 13:42 | 65.13273 | 34.38067 | 36559 ft | 478 kts | 166° |
| 2026-04-24 13:42 | 65.06835 | 34.42050 | 36553 ft | 478 kts | 166° |
| 2026-04-24 13:43 | 65.00398 | 34.46024 | 36552 ft | 478 kts | 166° |
| 2026-04-24 13:43 | 64.93953 | 34.49987 | 36555 ft | 479 kts | 165° |
| 2026-04-24 13:44 | 64.87605 | 34.54445 | 36552 ft | 480 kts | 163° |
| 2026-04-24 13:44 | 64.81262 | 34.59339 | 36557 ft | 480 kts | 162° |
| 2026-04-24 13:45 | 64.74869 | 34.64194 | 36560 ft | 480 kts | 163° |
| 2026-04-24 13:45 | 64.68540 | 34.68805 | 36550 ft | 480 kts | 163° |
| 2026-04-24 13:46 | 64.62166 | 34.73371 | 36561 ft | 479 kts | 163° |
| 2026-04-24 13:46 | 64.55792 | 34.77945 | 36560 ft | 479 kts | 163° |
| 2026-04-24 13:47 | 64.49424 | 34.82546 | 36552 ft | 479 kts | 163° |
| 2026-04-24 13:47 | 64.43055 | 34.87130 | 36556 ft | 479 kts | 163° |
| 2026-04-24 13:48 | 64.36710 | 34.91869 | 36554 ft | 479 kts | 162° |
| 2026-04-24 13:48 | 64.30375 | 34.96679 | 36567 ft | 479 kts | 162° |
| 2026-04-24 13:49 | 64.24038 | 35.01419 | 36569 ft | 479 kts | 163° |
| 2026-04-24 13:49 | 64.17691 | 35.06078 | 36569 ft | 479 kts | 163° |
| 2026-04-24 13:50 | 64.11341 | 35.10728 | 36574 ft | 479 kts | 163° |
| 2026-04-24 13:50 | 64.04997 | 35.15415 | 36575 ft | 479 kts | 162° |
| 2026-04-24 13:51 | 63.98702 | 35.20410 | 36578 ft | 479 kts | 161° |
| 2026-04-24 13:51 | 63.92428 | 35.25542 | 36578 ft | 479 kts | 161° |
| 2026-04-24 13:52 | 63.86142 | 35.30604 | 36579 ft | 479 kts | 161° |
| 2026-04-24 13:52 | 63.79888 | 35.35541 | 36582 ft | 479 kts | 161° |
| 2026-04-24 13:53 | 63.73595 | 35.40482 | 36583 ft | 479 kts | 161° |
| 2026-04-24 13:53 | 63.67300 | 35.45389 | 36585 ft | 479 kts | 161° |
| 2026-04-24 13:54 | 63.60997 | 35.50243 | 36588 ft | 479 kts | 162° |
| 2026-04-24 13:54 | 63.54654 | 35.54772 | 36592 ft | 478 kts | 163° |
| 2026-04-24 13:55 | 63.48289 | 35.59127 | 36594 ft | 479 kts | 163° |
| 2026-04-24 13:55 | 63.41922 | 35.63503 | 36595 ft | 479 kts | 163° |
| 2026-04-24 13:56 | 63.35561 | 35.67942 | 36598 ft | 479 kts | 163° |
| 2026-04-24 13:56 | 63.29203 | 35.72368 | 36603 ft | 479 kts | 163° |
| 2026-04-24 13:57 | 63.22832 | 35.76758 | 36608 ft | 479 kts | 163° |
| 2026-04-24 13:57 | 63.16499 | 35.81098 | 36610 ft | 480 kts | 163° |
| 2026-04-24 13:58 | 63.10074 | 35.85483 | 36615 ft | 480 kts | 163° |
| 2026-04-24 13:58 | 63.03743 | 35.89836 | 36614 ft | 480 kts | 163° |
| 2026-04-24 13:59 | 62.97367 | 35.94202 | 36618 ft | 480 kts | 163° |
| 2026-04-24 13:59 | 62.90975 | 35.98519 | 36620 ft | 480 kts | 163° |
| 2026-04-24 14:00 | 62.85666 | 36.02096 | 36623 ft | 480 kts | 163° |
| 2026-04-24 14:00 | 62.79284 | 36.06377 | 36631 ft | 479 kts | 163° |
| 2026-04-24 14:01 | 62.72916 | 36.10616 | 36636 ft | 478 kts | 163° |
| 2026-04-24 14:01 | 62.66543 | 36.14820 | 36640 ft | 478 kts | 164° |
| 2026-04-24 14:02 | 62.60180 | 36.19009 | 36641 ft | 478 kts | 164° |
| 2026-04-24 14:02 | 62.53818 | 36.23193 | 36639 ft | 478 kts | 163° |
| 2026-04-24 14:03 | 62.47454 | 36.27375 | 36636 ft | 478 kts | 163° |
| 2026-04-24 14:03 | 62.41097 | 36.31526 | 36634 ft | 478 kts | 164° |
| 2026-04-24 14:04 | 62.34769 | 36.35624 | 36634 ft | 478 kts | 164° |
| 2026-04-24 14:04 | 62.28393 | 36.39739 | 36637 ft | 478 kts | 164° |
| 2026-04-24 14:05 | 62.22019 | 36.43835 | 36636 ft | 478 kts | 164° |
| 2026-04-24 14:05 | 62.15652 | 36.47906 | 36634 ft | 477 kts | 164° |
| 2026-04-24 14:06 | 62.09281 | 36.51937 | 36630 ft | 477 kts | 164° |
| 2026-04-24 14:06 | 62.02913 | 36.55965 | 36630 ft | 477 kts | 164° |
| 2026-04-24 14:07 | 61.96544 | 36.59998 | 36631 ft | 478 kts | 164° |
| 2026-04-24 14:07 | 61.90176 | 36.64009 | 36630 ft | 477 kts | 164° |
| 2026-04-24 14:08 | 61.83807 | 36.67990 | 36628 ft | 477 kts | 164° |
| 2026-04-24 14:08 | 61.77486 | 36.71938 | 36624 ft | 477 kts | 164° |
| 2026-04-24 14:09 | 61.71126 | 36.75892 | 36624 ft | 476 kts | 164° |
| 2026-04-24 14:09 | 61.64769 | 36.79820 | 36623 ft | 476 kts | 164° |
| 2026-04-24 14:10 | 61.58414 | 36.83752 | 36624 ft | 476 kts | 164° |
| 2026-04-24 14:10 | 61.52065 | 36.87655 | 36624 ft | 475 kts | 164° |
| 2026-04-24 14:11 | 61.45723 | 36.91529 | 36619 ft | 475 kts | 164° |
| 2026-04-24 14:12 | 61.36219 | 36.97303 | 36613 ft | 474 kts | 164° |
| 2026-04-24 14:12 | 61.29883 | 37.01121 | 36610 ft | 474 kts | 165° |
| 2026-04-24 14:13 | 61.23566 | 37.05049 | 36605 ft | 474 kts | 163° |
| 2026-04-24 14:13 | 61.17273 | 37.09155 | 36604 ft | 474 kts | 163° |
| 2026-04-24 14:14 | 61.10983 | 37.13239 | 36605 ft | 474 kts | 163° |
| 2026-04-24 14:14 | 61.01573 | 37.19192 | 36603 ft | 474 kts | 163° |
| 2026-04-24 14:15 | 60.95272 | 37.23159 | 36602 ft | 474 kts | 163° |
| 2026-04-24 14:15 | 60.88975 | 37.27122 | 36598 ft | 473 kts | 163° |
| 2026-04-24 14:16 | 60.82681 | 37.31048 | 36594 ft | 473 kts | 163° |
| 2026-04-24 14:17 | 60.73240 | 37.36924 | 36589 ft | 473 kts | 163° |
| 2026-04-24 14:17 | 60.63806 | 37.42787 | 36582 ft | 472 kts | 163° |
| 2026-04-24 14:18 | 60.57515 | 37.46651 | 36583 ft | 472 kts | 164° |
| 2026-04-24 14:18 | 60.51226 | 37.50489 | 36581 ft | 472 kts | 164° |
| 2026-04-24 14:19 | 60.44934 | 37.54297 | 36580 ft | 472 kts | 165° |
| 2026-04-24 14:19 | 60.38586 | 37.57608 | 36578 ft | 471 kts | 167° |
| 2026-04-24 14:20 | 60.32208 | 37.60608 | 36578 ft | 470 kts | 167° |
| 2026-04-24 14:20 | 60.25842 | 37.63650 | 36572 ft | 471 kts | 167° |
| 2026-04-24 14:21 | 60.19527 | 37.66765 | 36570 ft | 470 kts | 167° |
| 2026-04-24 14:21 | 60.13180 | 37.69918 | 36569 ft | 469 kts | 167° |
| 2026-04-24 14:22 | 60.06839 | 37.73046 | 36566 ft | 469 kts | 167° |
| 2026-04-24 14:23 | 59.97307 | 37.77443 | 36556 ft | 468 kts | 170° |
| 2026-04-24 14:23 | 59.90898 | 37.79735 | 36542 ft | 468 kts | 171° |
| 2026-04-24 14:24 | 59.84481 | 37.81936 | 36552 ft | 468 kts | 171° |
| 2026-04-24 14:24 | 59.78070 | 37.84263 | 36544 ft | 468 kts | 170° |
| 2026-04-24 14:25 | 59.71663 | 37.86662 | 36552 ft | 468 kts | 170° |
| 2026-04-24 14:25 | 59.65257 | 37.89016 | 36548 ft | 468 kts | 171° |
| 2026-04-24 14:26 | 59.58838 | 37.91238 | 36542 ft | 468 kts | 171° |
| 2026-04-24 14:26 | 59.52415 | 37.93419 | 36531 ft | 468 kts | 171° |
| 2026-04-24 14:27 | 59.45998 | 37.95631 | 36540 ft | 468 kts | 171° |
| 2026-04-24 14:27 | 59.39576 | 37.97848 | 36538 ft | 468 kts | 171° |
| 2026-04-24 14:28 | 59.33153 | 38.00064 | 36537 ft | 469 kts | 171° |
| 2026-04-24 14:28 | 59.26699 | 38.01661 | 36543 ft | 467 kts | 182° |
| 2026-04-24 14:29 | 59.20244 | 38.00722 | 36547 ft | 465 kts | 186° |
| 2026-04-24 14:29 | 59.13797 | 37.99662 | 36548 ft | 465 kts | 186° |
| 2026-04-24 14:30 | 59.08436 | 37.98810 | 36540 ft | 466 kts | 186° |
| 2026-04-24 14:30 | 59.00875 | 37.97595 | 36530 ft | 466 kts | 186° |
| 2026-04-24 14:31 | 58.94404 | 37.96536 | 36531 ft | 467 kts | 186° |
| 2026-04-24 14:31 | 58.87968 | 37.95493 | 36534 ft | 467 kts | 186° |
| 2026-04-24 14:32 | 58.81487 | 37.94460 | 36533 ft | 467 kts | 186° |
| 2026-04-24 14:32 | 58.74999 | 37.93436 | 36532 ft | 468 kts | 186° |
| 2026-04-24 14:33 | 58.68509 | 37.92422 | 36545 ft | 468 kts | 186° |
| 2026-04-24 14:33 | 58.62020 | 37.91466 | 36548 ft | 468 kts | 185° |
| 2026-04-24 14:34 | 58.55521 | 37.90613 | 36553 ft | 468 kts | 185° |
| 2026-04-24 14:34 | 58.49027 | 37.89757 | 36553 ft | 468 kts | 185° |
| 2026-04-24 14:35 | 58.42533 | 37.88890 | 36563 ft | 468 kts | 185° |
| 2026-04-24 14:35 | 58.36042 | 37.88006 | 36567 ft | 467 kts | 185° |
| 2026-04-24 14:36 | 58.29555 | 37.87131 | 36565 ft | 467 kts | 185° |
| 2026-04-24 14:36 | 58.23068 | 37.86263 | 36564 ft | 467 kts | 185° |
| 2026-04-24 14:36 | 58.19846 | 37.85833 | 36391 ft | 475 kts | 185° |
| 2026-04-24 14:37 | 58.16530 | 37.85393 | 35897 ft | 481 kts | 185° |
| 2026-04-24 14:37 | 58.13176 | 37.84949 | 34997 ft | 486 kts | 185° |
| 2026-04-24 14:37 | 58.09794 | 37.84503 | 34268 ft | 486 kts | 185° |
| 2026-04-24 14:37 | 58.06438 | 37.84064 | 33705 ft | 482 kts | 185° |
| 2026-04-24 14:38 | 58.03103 | 37.83624 | 33097 ft | 479 kts | 185° |
| 2026-04-24 14:38 | 57.99789 | 37.83187 | 32501 ft | 476 kts | 185° |
| 2026-04-24 14:38 | 57.96502 | 37.82758 | 31908 ft | 472 kts | 185° |
| 2026-04-24 14:38 | 57.93241 | 37.82332 | 31315 ft | 468 kts | 185° |
| 2026-04-24 14:39 | 57.90004 | 37.81910 | 30745 ft | 464 kts | 185° |
| 2026-04-24 14:39 | 57.86804 | 37.81488 | 30182 ft | 459 kts | 185° |
| 2026-04-24 14:39 | 57.83646 | 37.81072 | 29695 ft | 452 kts | 185° |
| 2026-04-24 14:39 | 57.80514 | 37.80659 | 29108 ft | 446 kts | 185° |
| 2026-04-24 14:40 | 57.77451 | 37.80238 | 28591 ft | 436 kts | 185° |
| 2026-04-24 14:40 | 57.74482 | 37.79809 | 28379 ft | 418 kts | 185° |
| 2026-04-24 14:40 | 57.71636 | 37.79395 | 28103 ft | 406 kts | 186° |
| 2026-04-24 14:40 | 57.68833 | 37.78986 | 27619 ft | 403 kts | 185° |
| 2026-04-24 14:41 | 57.66050 | 37.78584 | 27159 ft | 399 kts | 185° |
| 2026-04-24 14:41 | 57.63292 | 37.78192 | 26702 ft | 396 kts | 185° |
| 2026-04-24 14:41 | 57.60560 | 37.77807 | 26258 ft | 392 kts | 185° |
| 2026-04-24 14:41 | 57.57856 | 37.77423 | 25826 ft | 388 kts | 185° |
| 2026-04-24 14:42 | 57.56081 | 37.77168 | 25535 ft | 385 kts | 185° |
| 2026-04-24 14:42 | 57.52536 | 37.76656 | 24939 ft | 380 kts | 185° |
| 2026-04-24 14:42 | 57.49912 | 37.76288 | 24492 ft | 376 kts | 185° |
| 2026-04-24 14:42 | 57.47312 | 37.75926 | 24041 ft | 373 kts | 185° |
| 2026-04-24 14:43 | 57.44736 | 37.75570 | 23591 ft | 370 kts | 185° |
| 2026-04-24 14:43 | 57.42182 | 37.75238 | 23139 ft | 367 kts | 185° |
| 2026-04-24 14:43 | 57.39650 | 37.74895 | 22688 ft | 363 kts | 185° |
| 2026-04-24 14:43 | 57.37135 | 37.74556 | 22236 ft | 361 kts | 185° |
| 2026-04-24 14:44 | 57.34648 | 37.74231 | 21897 ft | 355 kts | 185° |
| 2026-04-24 14:44 | 57.32196 | 37.73917 | 21486 ft | 352 kts | 185° |
| 2026-04-24 14:44 | 57.29762 | 37.73604 | 21050 ft | 350 kts | 185° |
| 2026-04-24 14:44 | 57.27342 | 37.73293 | 20606 ft | 348 kts | 185° |
| 2026-04-24 14:45 | 57.24937 | 37.72988 | 20170 ft | 345 kts | 185° |
| 2026-04-24 14:45 | 57.22542 | 37.72685 | 19732 ft | 344 kts | 185° |
| 2026-04-24 14:45 | 57.20165 | 37.72382 | 19296 ft | 342 kts | 185° |
| 2026-04-24 14:45 | 57.17802 | 37.72081 | 18867 ft | 339 kts | 185° |
| 2026-04-24 14:46 | 57.15454 | 37.71781 | 18438 ft | 337 kts | 185° |
| 2026-04-24 14:46 | 57.13124 | 37.71481 | 18000 ft | 335 kts | 185° |
| 2026-04-24 14:46 | 57.10810 | 37.71149 | 17592 ft | 332 kts | 188° |
| 2026-04-24 14:46 | 57.08563 | 37.70413 | 17319 ft | 325 kts | 192° |
| 2026-04-24 14:47 | 57.07099 | 37.69904 | 17090 ft | 322 kts | 191° |
| 2026-04-24 14:47 | 57.04165 | 37.68892 | 16579 ft | 319 kts | 191° |
| 2026-04-24 14:47 | 57.01990 | 37.68147 | 16243 ft | 317 kts | 191° |
| 2026-04-24 14:47 | 56.99828 | 37.67403 | 15948 ft | 315 kts | 191° |
| 2026-04-24 14:48 | 56.97673 | 37.66663 | 15632 ft | 315 kts | 191° |
| 2026-04-24 14:48 | 56.95524 | 37.65925 | 15318 ft | 314 kts | 191° |
| 2026-04-24 14:48 | 56.93377 | 37.65190 | 14990 ft | 313 kts | 191° |
| 2026-04-24 14:48 | 56.91236 | 37.64459 | 14669 ft | 313 kts | 191° |
| 2026-04-24 14:49 | 56.89099 | 37.63731 | 14345 ft | 312 kts | 191° |
| 2026-04-24 14:49 | 56.86970 | 37.63007 | 14028 ft | 311 kts | 191° |
| 2026-04-24 14:49 | 56.84843 | 37.62284 | 13717 ft | 310 kts | 191° |
| 2026-04-24 14:49 | 56.82724 | 37.61563 | 13402 ft | 310 kts | 191° |
| 2026-04-24 14:50 | 56.80609 | 37.60844 | 13083 ft | 309 kts | 191° |
| 2026-04-24 14:50 | 56.78497 | 37.60128 | 12763 ft | 308 kts | 191° |
| 2026-04-24 14:50 | 56.76387 | 37.59414 | 12454 ft | 308 kts | 191° |
| 2026-04-24 14:50 | 56.74282 | 37.58697 | 12139 ft | 307 kts | 191° |
| 2026-04-24 14:51 | 56.72892 | 37.58219 | 11930 ft | 307 kts | 191° |
| 2026-04-24 14:51 | 56.70775 | 37.57770 | 11612 ft | 307 kts | 181° |
| 2026-04-24 14:51 | 56.68638 | 37.57822 | 11302 ft | 307 kts | 180° |
| 2026-04-24 14:51 | 56.66496 | 37.57873 | 10981 ft | 308 kts | 180° |
| 2026-04-24 14:52 | 56.64351 | 37.57916 | 10655 ft | 309 kts | 180° |
| 2026-04-24 14:52 | 56.62204 | 37.57950 | 10356 ft | 309 kts | 180° |
| 2026-04-24 14:52 | 56.60074 | 37.57981 | 10088 ft | 304 kts | 180° |
| 2026-04-24 14:52 | 56.57969 | 37.58013 | 9747 ft | 300 kts | 180° |
| 2026-04-24 14:53 | 56.55886 | 37.58060 | 9619 ft | 301 kts | 179° |
| 2026-04-24 14:53 | 56.53789 | 37.58112 | 9465 ft | 301 kts | 180° |
| 2026-04-24 14:53 | 56.51700 | 37.58154 | 9181 ft | 299 kts | 180° |
| 2026-04-24 14:53 | 56.49613 | 37.58198 | 8869 ft | 299 kts | 180° |
| 2026-04-24 14:54 | 56.47524 | 37.58230 | 8562 ft | 300 kts | 180° |
| 2026-04-24 14:54 | 56.45436 | 37.58256 | 8266 ft | 300 kts | 180° |
| 2026-04-24 14:54 | 56.43358 | 37.58287 | 7970 ft | 298 kts | 180° |
| 2026-04-24 14:54 | 56.41284 | 37.58323 | 7652 ft | 298 kts | 180° |
| 2026-04-24 14:55 | 56.39217 | 37.58361 | 7344 ft | 296 kts | 180° |
| 2026-04-24 14:55 | 56.37163 | 37.58397 | 7038 ft | 295 kts | 180° |
| 2026-04-24 14:55 | 56.35119 | 37.58438 | 6730 ft | 293 kts | 180° |
| 2026-04-24 14:55 | 56.33086 | 37.58481 | 6441 ft | 291 kts | 180° |
| 2026-04-24 14:56 | 56.31060 | 37.58523 | 6146 ft | 290 kts | 180° |
| 2026-04-24 14:56 | 56.29047 | 37.58560 | 5854 ft | 289 kts | 180° |
| 2026-04-24 14:56 | 56.27041 | 37.58595 | 5558 ft | 288 kts | 180° |
| 2026-04-24 14:56 | 56.25045 | 37.58627 | 5275 ft | 285 kts | 180° |
| 2026-04-24 14:57 | 56.23098 | 37.58660 | 5136 ft | 273 kts | 180° |
| 2026-04-24 14:57 | 56.21245 | 37.58842 | 5048 ft | 261 kts | 173° |
| 2026-04-24 14:57 | 56.19430 | 37.59268 | 4949 ft | 266 kts | 172° |
| 2026-04-24 14:57 | 56.17594 | 37.59733 | 4581 ft | 267 kts | 172° |
| 2026-04-24 14:58 | 56.15772 | 37.60204 | 4153 ft | 269 kts | 172° |
| 2026-04-24 14:58 | 56.13915 | 37.60681 | 3738 ft | 269 kts | 172° |
| 2026-04-24 14:58 | 56.12063 | 37.61150 | 3395 ft | 266 kts | 172° |
| 2026-04-24 14:58 | 56.10275 | 37.61601 | 3305 ft | 253 kts | 172° |
| 2026-04-24 14:59 | 56.08579 | 37.62028 | 3251 ft | 240 kts | 172° |
| 2026-04-24 14:59 | 56.06947 | 37.62442 | 3207 ft | 232 kts | 171° |
| 2026-04-24 14:59 | 56.05373 | 37.62846 | 3137 ft | 225 kts | 171° |
| 2026-04-24 14:59 | 56.03848 | 37.63236 | 3038 ft | 219 kts | 171° |
| 2026-04-24 15:00 | 56.02343 | 37.63519 | 2942 ft | 217 kts | 185° |
| 2026-04-24 15:00 | 56.00988 | 37.62585 | 2862 ft | 205 kts | 225° |
| 2026-04-24 15:00 | 56.00224 | 37.60616 | 2633 ft | 189 kts | 258° |
| 2026-04-24 15:00 | 55.99895 | 37.58367 | 2293 ft | 186 kts | 261° |
| 2026-04-24 15:01 | 55.99577 | 37.56199 | 2023 ft | 174 kts | 261° |
| 2026-04-24 15:01 | 55.99277 | 37.54171 | 1788 ft | 164 kts | 261° |
| 2026-04-24 15:01 | 55.98995 | 37.52263 | 1586 ft | 153 kts | 261° |
| 2026-04-24 15:01 | 55.98735 | 37.50512 | 1383 ft | 140 kts | 261° |
| 2026-04-24 15:02 | 55.98490 | 37.48857 | 1200 ft | 137 kts | 260° |
| 2026-04-24 15:02 | 55.98251 | 37.47233 | 1003 ft | 134 kts | 261° |
| 2026-04-24 15:02 | 55.98015 | 37.45642 | 828 ft | 132 kts | 262° |
| 2026-04-24 15:02 | 55.97780 | 37.44064 | 679 ft | 131 kts | 262° |
| 2026-04-24 15:03 | 55.97572 | 37.42622 | 640 ft | 99 kts | 255° |
| 2026-04-24 15:03 | 55.97440 | 37.41729 | 636 ft | 50 kts | 255° |
| 2026-04-24 15:03 | 55.97382 | 37.41334 | 640 ft | 19 kts | 256° |
| 2026-04-24 15:03 | 55.97450 | 37.41210 | 639 ft | 15 kts | 346° |
| 2026-04-24 15:04 | 55.97488 | 37.41193 | 644 ft | 0 kts | 344° |
| 2026-04-24 15:04 | 55.97515 | 37.41179 | 639 ft | 10 kts | 345° |
| 2026-04-24 15:04 | 55.97618 | 37.41188 | 643 ft | 18 kts | 54° |
| 2026-04-24 15:04 | 55.97660 | 37.41409 | 639 ft | 19 kts | 76° |
| 2026-04-24 15:05 | 55.97694 | 37.41647 | 639 ft | 17 kts | 75° |
| 2026-04-24 15:05 | 55.97735 | 37.41827 | 644 ft | 13 kts | 28° |
| 2026-04-24 15:05 | 55.97792 | 37.41815 | 639 ft | 6 kts | 346° |
| 2026-04-24 15:05 | 55.97797 | 37.41813 | 642 ft | 0 kts | 345° |